Seabulk Trader — KNJK — position and weather

sailwx.info

Track history (hours):
 
Tides and Currents Weather Stations Pressure Air Temp Water Temp Dewpoint Dewpoint Depression Visibility Wind Speed Wind Dir Waves Ship Positions

Seabulk Trader

Owner: Seabulk Tankers Inc, Fort Lauderdale, FL. More information available from US FCC via Universal Licensing System and Coast Guard Vessel Documentation Center.

Last reported at 2018-Feb-19 05:08 UTC. Time now 2018-Feb-20 11:19 UTC.
Position N 29°13' W 094°43'.

Type: Tanker. MMSI: 303105000.

Date/timePositionNaut miles runAvg speedWind from/ knotsBaromVisibWave heightAir tempDewpointWater temp
2018-Feb-19 05:08N 29°13' W 094°43'0 0.0
2018-Feb-19 04:53N 29°13' W 094°43'0 0.0
2018-Feb-18 04:49N 29°13' W 094°43'  
2018-Feb-13 15:07N 29°21' W 094°46'214.2
2018-Feb-13 15:00N 29°21' W 094°47'714.3
2018-Feb-13 14:30N 29°27' W 094°51'713.5
2018-Feb-13 14:00N 29°33' W 094°55'612.0
2018-Feb-13 13:30N 29°39' W 094°58'610.6
2018-Feb-13 12:58N 29°43' W 095°01'4 8.8
2018-Feb-13 12:30N 29°46' W 095°05'1 0.0
2018-Feb-12 11:21N 29°45' W 095°06'2 4.5
2018-Feb-12 11:00N 29°45' W 095°04'3 6.9
2018-Feb-12 10:30N 29°43' W 095°01'4 7.9
2018-Feb-12 10:00N 29°40' W 094°58'510.7
2018-Feb-12 09:30N 29°35' W 094°56'611.3
2018-Feb-12 08:58N 29°30' W 094°52'1210.0
2018-Feb-12 07:48N 29°21' W 094°44'410.9
2018-Feb-12 07:28N 29°20' W 094°40'510.1
2018-Feb-12 06:58N 29°18' W 094°35'  
Track history (hours):
 
Tides and Currents Weather Stations Pressure Air Temp Water Temp Dewpoint Dewpoint Depression Visibility Wind Speed Wind Dir Waves Ship Positions

Seabulk Trader

Owner: Seabulk Tankers Inc, Fort Lauderdale, FL. More information available from US FCC via Universal Licensing System and Coast Guard Vessel Documentation Center.

Last reported at 2018-Feb-19 05:08 UTC. Time now 2018-Feb-20 11:19 UTC.
Position N 29°13' W 094°43'.

Type: Tanker. MMSI: 303105000.

Date/timePositionNaut miles runAvg speedWind from/ knotsBaromVisibWave heightAir tempDewpointWater temp
2018-Feb-19 05:08N 29°13' W 094°43'0 0.0
2018-Feb-19 04:53N 29°13' W 094°43'0 0.0
2018-Feb-18 04:49N 29°13' W 094°43'  
2018-Feb-13 15:07N 29°21' W 094°46'214.2
2018-Feb-13 15:00N 29°21' W 094°47'714.3
2018-Feb-13 14:30N 29°27' W 094°51'713.5
2018-Feb-13 14:00N 29°33' W 094°55'612.0
2018-Feb-13 13:30N 29°39' W 094°58'610.6
2018-Feb-13 12:58N 29°43' W 095°01'4 8.8
2018-Feb-13 12:30N 29°46' W 095°05'1 0.0
2018-Feb-12 11:21N 29°45' W 095°06'2 4.5
2018-Feb-12 11:00N 29°45' W 095°04'3 6.9
2018-Feb-12 10:30N 29°43' W 095°01'4 7.9
2018-Feb-12 10:00N 29°40' W 094°58'510.7
2018-Feb-12 09:30N 29°35' W 094°56'611.3
2018-Feb-12 08:58N 29°30' W 094°52'1210.0
2018-Feb-12 07:48N 29°21' W 094°44'410.9
2018-Feb-12 07:28N 29°20' W 094°40'510.1
2018-Feb-12 06:58N 29°18' W 094°35'  

Dump ship's entire track history